CW9266 Weather Reports


Display with metric or nautical units.
time (UTC)temp
F
wind
direction
speed
MPH
gust
MPH
rain 1hr
in
rain 24hr
in
rain mn
in
humidity
%
barometer
mb
20210803144759 62 342 1.0 4.0 0.00 0.00 0.00 63 1045.1
20210803143131 61 310 0.0 0.0 0.00 0.00 0.00 67 1045.1
20210803140108 59 310 0.0 0.0 0.00 0.00 0.00 68 1044.9
20210803134554 60 310 0.0 0.0 0.00 0.00 0.00 69 1044.7
20210803133052 60 310 0.0 0.0 0.00 0.00 0.00 68 1044.7
20210803130208 60 310 0.0 0.0 0.00 0.00 0.00 68 1044.7
20210803124743 61 310 0.0 0.0 0.00 0.00 0.00 67 1044.4
20210803123341 61 310 0.0 0.0 0.00 0.00 0.00 66 1044.3
20210803121753 61 310 0.0 0.0 0.00 0.00 0.00 67 1044.3
20210803120015 61 310 0.0 0.0 0.00 0.00 0.00 67 1044.2
20210803114524 62 310 0.0 0.0 0.00 0.00 0.00 66 1044.1
20210803113138 62 310 1.0 3.0 0.00 0.00 0.00 66 1044.3
20210803111554 63 310 0.0 1.0 0.00 0.00 0.00 64 1044.2
20210803110025 63 310 0.0 0.0 0.00 0.00 0.00 65 1043.9
20210803104726 63 310 0.0 2.0 0.00 0.00 0.00 65 1044.1
20210803101530 64 310 0.0 0.0 0.00 0.00 0.00 63 1043.8
20210803100011 64 310 0.0 0.0 0.00 0.00 0.00 63 1043.8
20210803094548 64 310 0.0 0.0 0.00 0.00 0.00 62 1043.9
20210803093300 65 310 0.0 0.0 0.00 0.00 0.00 61 1043.8
20210803084534 68 310 0.0 0.0 0.00 0.00 0.00 57 1043.8
20210803083039 69 310 0.0 5.0 0.00 0.00 0.00 55 1043.7
20210803081550 69 305 2.0 6.0 0.00 0.00 0.00 55 1043.7
20210803080054 69 304 1.0 5.0 0.00 0.00 0.00 55 1043.7
20210803074520 70 304 0.0 3.0 0.00 0.00 0.00 54 1043.5
20210803073024 72 331 1.0 5.0 0.00 0.00 0.00 51 1043.5
20210803071526 72 307 5.0 10.0 0.00 0.00 0.00 50 1043.5
20210803070038 72 305 4.0 10.0 0.00 0.00 0.00 50 1043.5
20210803064510 73 13 2.0 5.0 0.00 0.00 0.00 50 1043.3
20210803063009 73 323 2.0 9.0 0.00 0.00 0.00 49 1043.3
20210803061507 73 348 3.0 8.0 0.00 0.00 0.00 48 1043.5
20210803060004 74 322 7.0 13.0 0.00 0.00 0.00 49 1043.4
20210803054532 74 322 6.0 12.0 0.00 0.00 0.00 49 1043.4
20210803053251 74 327 4.0 11.0 0.00 0.00 0.00 48 1043.4
20210803051655 73 309 6.0 11.0 0.00 0.00 0.00 48 1043.3
20210803050326 73 273 7.0 15.0 0.00 0.00 0.00 48 1043.2
20210803044702 74 302 12.0 17.0 0.00 0.00 0.00 48 1043.0
20210803043125 74 312 7.0 14.0 0.00 0.00 0.00 48 1042.8
20210803041702 75 332 9.0 14.0 0.00 0.00 0.00 46 1042.7
20210803040211 76 312 2.0 6.0 0.00 0.00 0.00 45 1042.5
20210803034603 78 303 5.0 8.0 0.00 0.00 0.00 43 1042.3
20210803033141 78 313 8.0 13.0 0.00 0.00 0.00 43 1042.3
20210803031620 78 321 4.0 14.0 0.00 0.00 0.00 43 1042.5
20210803030201 79 313 8.0 15.0 0.00 0.00 0.00 42 1042.2
20210803024643 79 304 10.0 17.0 0.00 0.00 0.00 41 1042.1
20210803023121 82 289 7.0 14.0 0.00 0.00 0.00 38 1042.1
20210803021608 83 296 7.0 13.0 0.00 0.00 0.00 37 1041.8
20210803020136 83 315 7.0 12.0 0.00 0.00 0.00 36 1041.9
20210803014555 85 317 5.0 10.0 0.00 0.00 0.00 35 1041.8
20210803013038 85 315 9.0 15.0 0.00 0.00 0.00 34 1041.9
20210803011544 86 310 8.0 13.0 0.00 0.00 0.00 32 1041.8
20210803010025 88 333 10.0 16.0 0.00 0.00 0.00 30 1041.8
20210803004511 89 316 8.0 14.0 0.00 0.00 0.00 29 1041.7
20210803003118 90 325 10.0 13.0 0.00 0.00 0.00 29 1041.8
20210803001521 91 312 7.0 11.0 0.00 0.00 0.00 28 1041.7
20210803000013 91 304 8.0 12.0 0.00 0.00 0.00 28 1041.7
20210802234535 90 360 3.0 8.0 0.00 0.00 0.00 32 1041.6
20210802233006 90 5 2.0 5.0 0.00 0.00 0.00 33 1041.7
20210802231505 90 326 2.0 6.0 0.00 0.00 0.00 33 1041.8
20210802230002 90 11 2.0 5.0 0.00 0.00 0.00 33 1041.9
20210802224733 89 24 0.0 4.0 0.00 0.00 0.00 35 1042.1
20210802223227 89 94 1.0 4.0 0.00 0.00 0.00 34 1042.3
20210802221634 87 94 1.0 6.0 0.00 0.00 0.00 37 1042.4
20210802220139 87 5 1.0 5.0 0.00 0.00 0.00 37 1042.5
20210802214706 86 76 1.0 5.0 0.00 0.00 0.00 36 1042.7
20210802213313 85 32 2.0 6.0 0.00 0.00 0.00 39 1042.8
20210802211641 84 61 1.0 8.0 0.00 0.00 0.00 40 1042.9
20210802210132 83 17 2.0 5.0 0.00 0.00 0.00 41 1043.2
20210802204754 82 78 1.0 5.0 0.00 0.00 0.00 43 1043.2
20210802203133 81 11 1.0 6.0 0.00 0.00 0.00 44 1043.5
20210802201629 80 28 1.0 8.0 0.00 0.00 0.00 45 1043.6
20210802200155 79 340 1.0 5.0 0.00 0.00 0.00 47 1043.8
20210802194640 78 360 1.0 5.0 0.00 0.00 0.00 47 1044.0
20210802193220 77 321 2.0 10.0 0.00 0.00 0.00 48 1044.3
20210802191708 77 348 2.0 8.0 0.00 0.00 0.00 47 1044.3
20210802190136 75 29 1.0 9.0 0.00 0.00 0.00 50 1044.4
20210802184636 74 38 2.0 6.0 0.00 0.00 0.00 51 1044.6
20210802183133 73 342 2.0 6.0 0.00 0.00 0.00 52 1044.7
20210802181752 73 38 1.0 8.0 0.00 0.00 0.00 52 1044.9
20210802180104 72 338 2.0 6.0 0.00 0.00 0.00 53 1045.0
20210802174707 71 333 2.0 9.0 0.00 0.00 0.00 54 1045.0
20210802173059 70 312 4.0 11.0 0.00 0.00 0.00 55 1045.2
20210802171711 70 33 4.0 11.0 0.00 0.00 0.00 56 1045.1
20210802170142 69 331 4.0 8.0 0.00 0.00 0.00 56 1045.2
20210802164621 68 11 2.0 8.0 0.00 0.00 0.00 58 1045.3
20210802161656 66 355 2.0 6.0 0.00 0.00 0.00 60 1045.6
20210802160127 64 329 1.0 8.0 0.00 0.00 0.00 62 1045.7
20210802154626 64 337 1.0 6.0 0.00 0.00 0.00 63 1045.8
20210802153137 63 347 1.0 6.0 0.00 0.00 0.00 63 1045.8
20210802151605 63 355 1.0 6.0 0.00 0.00 0.00 64 1045.8
20210802150107 62 338 1.0 4.0 0.00 0.00 0.00 65 1045.8